TimeCST,TemperatureF,Dew PointF,Humidity,Sea Level PressureIn,VisibilityMPH,Wind Direction,Wind SpeedMPH,Gust SpeedMPH,PrecipitationIn,Events,Conditions,WindDirDegrees,DateUTC
12:15 AM,66.2,60.8,83,29.81,10.0,South,8.1,-,N/A,,Overcast,190,2013-12-05 06:15:00
12:35 AM,66.2,60.8,83,29.82,10.0,SSW,6.9,-,N/A,,Overcast,200,2013-12-05 06:35:00
12:55 AM,66.2,60.8,83,29.81,10.0,South,6.9,-,N/A,,Overcast,190,2013-12-05 06:55:00
1:15 AM,66.2,62.6,88,29.81,10.0,SSW,8.1,-,N/A,,Mostly Cloudy,200,2013-12-05 07:15:00
1:35 AM,66.2,62.6,88,29.82,10.0,SSW,6.9,-,N/A,,Overcast,200,2013-12-05 07:35:00
1:55 AM,66.2,62.6,88,29.82,10.0,South,8.1,-,N/A,,Overcast,190,2013-12-05 07:55:00
2:15 AM,64.4,62.6,94,29.82,5.0,SSW,6.9,-,0.02,,Overcast,210,2013-12-05 08:15:00
2:35 AM,64.4,62.6,94,29.83,7.0,SSW,5.8,-,0.02,,Overcast,200,2013-12-05 08:35:00
2:55 AM,64.4,62.6,94,29.83,10.0,SSW,6.9,-,0.02,,Overcast,210,2013-12-05 08:55:00
3:15 AM,64.4,62.6,94,29.85,9.0,WNW,10.4,-,N/A,,Overcast,290,2013-12-05 09:15:00
3:35 AM,64.4,62.6,94,29.85,4.0,West,8.1,-,0.05,,Overcast,280,2013-12-05 09:35:00
3:55 AM,62.6,62.6,100,29.85,5.0,West,6.9,-,0.05,,Overcast,260,2013-12-05 09:55:00
4:15 AM,62.6,62.6,100,29.85,5.0,West,6.9,-,N/A,,Overcast,260,2013-12-05 10:15:00
4:35 AM,62.6,62.6,100,29.85,5.0,West,5.8,-,N/A,,Overcast,280,2013-12-05 10:35:00
4:55 AM,62.6,62.6,100,29.86,4.0,WNW,8.1,-,N/A,,Overcast,300,2013-12-05 10:55:00
5:15 AM,55.4,53.6,94,29.88,7.0,NNW,16.1,-,0.01,,Overcast,330,2013-12-05 11:15:00
5:35 AM,53.6,51.8,94,29.90,9.0,NNW,10.4,-,0.01,,Overcast,340,2013-12-05 11:35:00
5:55 AM,51.8,48.2,88,29.90,7.0,North,15.0,-,0.01,,Overcast,350,2013-12-05 11:55:00
6:15 AM,50.0,48.2,94,29.91,8.0,NNW,11.5,17.3,N/A,,Overcast,340,2013-12-05 12:15:00
6:35 AM,50.0,48.2,94,29.93,7.0,North,11.5,-,N/A,,Overcast,350,2013-12-05 12:35:00
6:55 AM,48.2,46.4,93,29.96,5.0,North,15.0,18.4,N/A,,Overcast,350,2013-12-05 12:55:00
7:15 AM,48.2,46.4,93,29.97,2.5,NNW,13.8,18.4,N/A,,Overcast,340,2013-12-05 13:15:00
7:35 AM,46.4,44.6,93,29.99,2.5,NNW,17.3,21.9,N/A,,Overcast,340,2013-12-05 13:35:00
7:55 AM,44.6,44.6,100,30.00,4.0,North,15.0,-,N/A,,Overcast,350,2013-12-05 13:55:00
8:15 AM,42.8,41.0,93,30.02,4.0,North,18.4,24.2,N/A,,Overcast,350,2013-12-05 14:15:00
8:35 AM,42.8,39.2,87,30.03,8.0,North,10.4,20.7,N/A,,Overcast,350,2013-12-05 14:35:00
8:55 AM,42.8,39.2,87,30.03,7.0,North,11.5,-,N/A,,Overcast,360,2013-12-05 14:55:00
9:15 AM,42.8,39.2,87,30.06,7.0,NNW,12.7,-,N/A,,Overcast,340,2013-12-05 15:15:00
9:35 AM,41.0,39.2,93,30.06,7.0,North,12.7,-,N/A,,Overcast,350,2013-12-05 15:35:00
9:55 AM,41.0,37.4,87,30.08,8.0,North,13.8,18.4,N/A,,Overcast,350,2013-12-05 15:55:00
10:15 AM,41.0,33.8,76,30.07,10.0,North,17.3,20.7,N/A,,Overcast,360,2013-12-05 16:15:00
10:35 AM,41.0,32.0,70,30.05,10.0,North,15.0,19.6,N/A,,Overcast,10,2013-12-05 16:35:00
10:55 AM,41.0,32.0,70,30.05,10.0,North,13.8,18.4,N/A,,Overcast,360,2013-12-05 16:55:00
11:15 AM,39.2,32.0,75,30.05,10.0,North,10.4,-,N/A,,Overcast,350,2013-12-05 17:15:00
11:35 AM,41.0,32.0,70,30.06,10.0,North,13.8,-,N/A,,Overcast,350,2013-12-05 17:35:00
11:55 AM,39.2,32.0,75,30.05,10.0,North,12.7,18.4,N/A,,Overcast,360,2013-12-05 17:55:00
12:15 PM,39.2,32.0,75,30.04,10.0,North,8.1,-,N/A,,Overcast,360,2013-12-05 18:15:00
12:35 PM,39.2,32.0,75,30.04,10.0,North,12.7,18.4,N/A,,Overcast,10,2013-12-05 18:35:00
12:55 PM,39.2,32.0,75,30.04,10.0,North,16.1,-,N/A,,Overcast,360,2013-12-05 18:55:00
1:15 PM,37.4,30.2,75,30.07,10.0,North,12.7,18.4,N/A,,Overcast,350,2013-12-05 19:15:00
1:35 PM,37.4,32.0,81,30.08,5.0,North,11.5,-,N/A,,Overcast,360,2013-12-05 19:35:00
1:55 PM,35.6,32.0,87,30.06,8.0,North,10.4,20.7,N/A,,Overcast,360,2013-12-05 19:55:00
2:15 PM,35.6,30.2,81,30.06,10.0,North,16.1,23.0,N/A,,Overcast,360,2013-12-05 20:15:00
2:35 PM,35.6,30.2,81,30.06,9.0,North,11.5,23.0,N/A,,Overcast,10,2013-12-05 20:35:00
2:55 PM,35.6,32.0,87,30.06,8.0,NE,11.5,18.4,N/A,,Overcast,40,2013-12-05 20:55:00
3:15 PM,35.6,32.0,87,30.08,9.0,North,11.5,-,N/A,,Overcast,360,2013-12-05 21:15:00
3:35 PM,33.8,32.0,93,30.08,1.2,North,11.5,-,0.03,,Overcast,10,2013-12-05 21:35:00
3:55 PM,33.8,32.0,93,30.09,3.0,North,11.5,-,0.04,,Mostly Cloudy,360,2013-12-05 21:55:00
4:15 PM,32.0,32.0,100,30.09,5.0,North,9.2,-,N/A,,Overcast,10,2013-12-05 22:15:00
4:35 PM,32.0,32.0,100,30.10,3.0,North,12.7,-,0.01,,Overcast,10,2013-12-05 22:35:00
4:55 PM,32.0,32.0,100,30.11,3.0,North,8.1,-,0.03,,Overcast,360,2013-12-05 22:55:00
5:15 PM,32.0,32.0,100,30.11,3.0,North,11.5,-,0.02,,Overcast,10,2013-12-05 23:15:00
5:35 PM,32.0,32.0,100,30.11,9.0,NNE,10.4,-,0.02,,Overcast,20,2013-12-05 23:35:00
5:55 PM,32.0,32.0,100,30.12,10.0,North,10.4,-,0.02,,Overcast,10,2013-12-05 23:55:00
6:15 PM,32.0,32.0,100,30.11,10.0,North,15.0,-,N/A,,Overcast,10,2013-12-06 00:15:00
6:35 PM,32.0,32.0,100,30.14,10.0,NNE,11.5,-,N/A,,Overcast,20,2013-12-06 00:35:00
6:55 PM,32.0,30.2,93,30.11,10.0,NNE,13.8,21.9,N/A,,Overcast,30,2013-12-06 00:55:00
7:15 PM,32.0,30.2,93,30.15,10.0,North,8.1,-,N/A,,Overcast,10,2013-12-06 01:15:00
7:35 PM,32.0,30.2,93,30.14,10.0,NNE,15.0,20.7,N/A,,Overcast,30,2013-12-06 01:35:00
7:55 PM,32.0,30.2,93,30.14,10.0,North,11.5,-,N/A,,Overcast,10,2013-12-06 01:55:00
8:15 PM,32.0,30.2,93,30.16,10.0,North,17.3,20.7,N/A,,Overcast,350,2013-12-06 02:15:00
8:35 PM,32.0,28.4,87,30.15,10.0,NNE,13.8,20.7,N/A,,Overcast,20,2013-12-06 02:35:00
8:55 PM,32.0,28.4,87,30.15,10.0,North,15.0,24.2,N/A,,Overcast,360,2013-12-06 02:55:00
9:15 PM,32.0,28.4,87,30.14,10.0,NNE,15.0,23.0,N/A,,Overcast,20,2013-12-06 03:15:00
9:35 PM,32.0,28.4,87,30.16,10.0,NNE,16.1,20.7,N/A,,Overcast,30,2013-12-06 03:35:00
9:55 PM,32.0,28.4,87,30.15,10.0,NE,13.8,-,N/A,,Overcast,40,2013-12-06 03:55:00
10:15 PM,32.0,28.4,87,30.18,9.0,North,10.4,-,N/A,,Overcast,10,2013-12-06 04:15:00
10:35 PM,32.0,28.4,87,30.13,4.0,NE,13.8,-,N/A,,Overcast,40,2013-12-06 04:35:00
10:55 PM,32.0,28.4,87,30.17,4.0,North,9.2,-,0.01,,Overcast,350,2013-12-06 04:55:00
11:15 PM,32.0,28.4,87,30.16,3.0,NNE,13.8,-,0.02,,Overcast,30,2013-12-06 05:15:00
11:35 PM,32.0,28.4,87,30.13,3.0,NNE,11.5,17.3,0.04,,Overcast,20,2013-12-06 05:35:00
11:55 PM,30.2,28.4,93,30.13,8.0,North,13.8,18.4,0.04,,Overcast,10,2013-12-06 05:55:00